createdAt,value
2017-12-26T00:01:54.791Z,4.60
2017-12-26T00:04:22.292Z,4.60
2017-12-26T00:06:50.570Z,4.70
2017-12-26T00:09:18.912Z,4.60
2017-12-26T00:11:46.451Z,4.60
2017-12-26T00:14:13.957Z,4.70
2017-12-26T00:16:42.288Z,4.80
2017-12-26T00:19:09.790Z,4.80
2017-12-26T00:21:38.095Z,4.80
2017-12-26T00:24:05.664Z,4.80
2017-12-26T00:26:33.162Z,4.80
2017-12-26T00:29:00.661Z,4.80
2017-12-26T00:31:28.169Z,4.90
2017-12-26T00:33:55.656Z,4.90
2017-12-26T00:36:23.954Z,4.90
2017-12-26T00:38:51.488Z,4.90
2017-12-26T00:41:19.892Z,4.90
2017-12-26T00:43:47.393Z,4.90
2017-12-26T00:46:14.915Z,4.90
2017-12-26T00:48:42.421Z,4.80
2017-12-26T00:51:09.922Z,4.80
2017-12-26T00:53:37.465Z,4.80
2017-12-26T00:56:04.961Z,4.80
2017-12-26T00:58:32.460Z,4.80
2017-12-26T01:01:00.744Z,4.90
2017-12-26T01:03:29.022Z,4.90
2017-12-26T01:05:56.529Z,4.90
2017-12-26T01:08:24.036Z,4.90
2017-12-26T01:10:52.297Z,4.90
2017-12-26T01:13:20.550Z,5.00
2017-12-26T01:15:48.073Z,4.90
2017-12-26T01:18:16.362Z,4.90
2017-12-26T01:20:43.859Z,4.90
2017-12-26T01:23:12.193Z,4.90
2017-12-26T01:25:39.681Z,4.80
2017-12-26T01:28:07.174Z,4.80
2017-12-26T01:30:34.701Z,4.70
2017-12-26T01:33:02.964Z,4.60
2017-12-26T01:35:30.457Z,4.60
2017-12-26T01:37:57.997Z,4.50
2017-12-26T01:40:26.281Z,4.40
2017-12-26T01:42:54.546Z,4.40
2017-12-26T01:45:22.853Z,4.30
2017-12-26T01:47:50.349Z,4.30
2017-12-26T01:50:18.609Z,4.20
2017-12-26T01:52:46.149Z,4.20
2017-12-26T01:55:13.644Z,4.10
2017-12-26T01:57:41.136Z,4.10
2017-12-26T02:00:08.656Z,4.00
2017-12-26T02:02:36.149Z,4.00
2017-12-26T02:05:04.485Z,3.90
2017-12-26T02:07:32.010Z,3.80
2017-12-26T02:09:59.507Z,3.80
2017-12-26T02:12:27.019Z,3.80
2017-12-26T02:14:54.562Z,3.70
2017-12-26T02:17:22.837Z,3.70
2017-12-26T02:19:50.343Z,3.70
2017-12-26T02:22:17.857Z,3.70
2017-12-26T02:24:45.352Z,3.70
2017-12-26T02:27:13.618Z,3.70
2017-12-26T02:29:41.133Z,3.70
2017-12-26T02:32:08.662Z,3.70
2017-12-26T02:34:36.218Z,3.70
2017-12-26T02:37:03.721Z,3.70
2017-12-26T02:39:31.227Z,3.70
2017-12-26T02:41:58.761Z,3.60
2017-12-26T02:44:26.288Z,3.60
2017-12-26T02:46:53.775Z,3.60
2017-12-26T02:49:21.321Z,3.60
2017-12-26T02:51:48.840Z,3.60
2017-12-26T02:54:16.384Z,3.50
2017-12-26T02:56:44.659Z,3.50
2017-12-26T02:59:12.930Z,3.50
2017-12-26T03:01:41.209Z,3.50
2017-12-26T03:04:08.722Z,3.50
2017-12-26T03:06:36.233Z,3.50
2017-12-26T03:09:04.497Z,3.50
2017-12-26T03:11:32.784Z,3.50
2017-12-26T03:14:00.288Z,3.50
2017-12-26T03:16:27.819Z,3.50
2017-12-26T03:18:55.332Z,3.60
2017-12-26T03:21:22.832Z,3.60
2017-12-26T03:23:50.335Z,3.60
2017-12-26T03:26:17.862Z,3.50
2017-12-26T03:28:45.373Z,3.60
2017-12-26T03:31:13.636Z,3.50
2017-12-26T03:33:41.928Z,3.50
2017-12-26T03:36:10.192Z,3.50
2017-12-26T03:38:38.506Z,3.40
2017-12-26T03:41:06.020Z,3.40
2017-12-26T03:43:33.539Z,3.40
2017-12-26T03:46:01.044Z,3.40
2017-12-26T03:48:29.336Z,3.40
2017-12-26T03:50:56.833Z,3.40
2017-12-26T03:53:24.328Z,3.40
2017-12-26T03:55:51.861Z,3.40
2017-12-26T03:58:19.355Z,3.30
2017-12-26T04:00:46.853Z,3.30
2017-12-26T04:03:14.366Z,3.30
2017-12-26T04:05:42.644Z,3.20
2017-12-26T04:08:10.174Z,3.20
2017-12-26T04:10:37.695Z,3.20
2017-12-26T04:13:05.264Z,3.20
2017-12-26T04:15:32.767Z,3.10
2017-12-26T04:18:01.112Z,3.10
2017-12-26T04:20:28.598Z,3.10
2017-12-26T04:22:56.862Z,3.10
2017-12-26T04:25:25.173Z,3.10
2017-12-26T04:27:52.691Z,3.00
2017-12-26T04:30:20.988Z,3.00
2017-12-26T04:32:48.516Z,3.00
2017-12-26T04:35:16.012Z,3.00
2017-12-26T04:37:43.513Z,3.00
2017-12-26T04:40:11.034Z,3.00
2017-12-26T04:42:38.529Z,3.00
2017-12-26T04:45:06.029Z,2.90
2017-12-26T04:47:33.572Z,2.90
2017-12-26T04:50:06.944Z,2.90
2017-12-26T04:52:34.458Z,2.90
2017-12-26T04:55:01.962Z,2.90
2017-12-26T04:57:29.454Z,2.90
2017-12-26T04:59:57.782Z,2.90
2017-12-26T05:02:25.271Z,2.90
2017-12-26T05:04:53.528Z,2.90
2017-12-26T05:07:21.091Z,2.90
2017-12-26T05:09:48.585Z,3.00
2017-12-26T05:12:16.079Z,3.00
2017-12-26T05:14:43.595Z,3.10
2017-12-26T05:17:11.102Z,3.10
2017-12-26T05:19:38.611Z,3.20
2017-12-26T05:22:06.131Z,3.30
2017-12-26T05:24:34.396Z,3.50
2017-12-26T05:27:02.535Z,3.50
2017-12-26T05:29:30.055Z,3.60
2017-12-26T05:31:58.311Z,3.60
2017-12-26T05:34:25.820Z,3.60
2017-12-26T05:36:54.094Z,3.70
2017-12-26T05:39:21.571Z,3.70
2017-12-26T05:41:49.047Z,3.80
2017-12-26T05:44:16.580Z,3.90
2017-12-26T05:46:44.081Z,4.00
2017-12-26T05:49:12.417Z,4.20
2017-12-26T05:51:39.947Z,4.20
2017-12-26T05:54:07.442Z,4.30
2017-12-26T05:56:34.928Z,4.40
2017-12-26T05:59:03.203Z,4.50
2017-12-26T06:01:31.468Z,4.60
2017-12-26T06:03:58.956Z,4.60
2017-12-26T06:06:26.492Z,4.60
2017-12-26T06:08:53.995Z,4.70
2017-12-26T06:11:21.490Z,4.70
2017-12-26T06:13:48.992Z,4.70
2017-12-26T06:16:16.485Z,4.80
2017-12-26T06:18:43.983Z,4.80
2017-12-26T06:21:12.279Z,4.80
2017-12-26T06:23:39.776Z,4.80
2017-12-26T06:26:07.267Z,4.90
2017-12-26T06:28:35.559Z,5.00
2017-12-26T06:31:03.047Z,4.90
2017-12-26T06:33:30.623Z,5.00
2017-12-26T06:35:58.213Z,5.00
2017-12-26T06:38:26.483Z,5.10
2017-12-26T06:40:54.740Z,5.10
2017-12-26T06:43:22.252Z,5.00
2017-12-26T06:45:49.743Z,5.10
2017-12-26T06:48:17.230Z,5.10
2017-12-26T06:50:45.509Z,5.10
2017-12-26T06:53:13.045Z,5.10
2017-12-26T06:55:41.331Z,5.10
2017-12-26T06:58:09.611Z,5.20
2017-12-26T07:00:37.867Z,5.20
2017-12-26T07:03:05.354Z,5.20
2017-12-26T07:05:32.871Z,5.20
2017-12-26T07:08:00.370Z,5.20
2017-12-26T07:10:27.876Z,5.30
2017-12-26T07:12:55.376Z,5.30
2017-12-26T07:15:23.631Z,5.30
2017-12-26T07:17:51.168Z,5.30
2017-12-26T07:23:18.463Z,5.30
2017-12-26T07:25:46.710Z,5.30
2017-12-26T07:28:14.195Z,5.30
2017-12-26T07:30:41.699Z,5.30
2017-12-26T07:33:09.199Z,5.30
2017-12-26T07:35:36.682Z,5.40
2017-12-26T07:38:04.198Z,5.40
2017-12-26T07:40:31.709Z,5.50
2017-12-26T07:42:59.200Z,5.50
2017-12-26T07:45:26.716Z,5.50
2017-12-26T07:47:54.199Z,5.50
2017-12-26T07:50:21.703Z,5.50
2017-12-26T07:52:49.966Z,5.50
2017-12-26T07:55:17.479Z,5.50
2017-12-26T07:57:45.016Z,5.50
2017-12-26T08:00:13.902Z,5.50
2017-12-26T08:02:42.155Z,5.50
2017-12-26T08:05:09.662Z,5.40
2017-12-26T08:07:37.151Z,5.50
2017-12-26T08:10:04.645Z,5.50
2017-12-26T08:12:32.158Z,5.50
2017-12-26T08:14:59.647Z,5.50
2017-12-26T08:17:27.912Z,5.50
2017-12-26T08:19:55.411Z,5.50
2017-12-26T08:22:22.903Z,5.50
2017-12-26T08:24:51.155Z,5.60
2017-12-26T08:27:18.668Z,5.60
2017-12-26T08:29:46.172Z,5.60
2017-12-26T08:32:13.676Z,5.60
2017-12-26T08:34:41.182Z,5.70
2017-12-26T08:37:08.688Z,5.70
2017-12-26T08:39:36.194Z,5.70
2017-12-26T08:42:03.719Z,5.80
2017-12-26T08:44:31.210Z,5.80
2017-12-26T08:46:58.706Z,5.80
2017-12-26T08:49:26.231Z,6.00
2017-12-26T08:51:53.765Z,6.00
2017-12-26T08:54:21.238Z,6.10
2017-12-26T08:56:48.796Z,6.20
2017-12-26T08:59:16.295Z,6.30
2017-12-26T09:01:43.898Z,6.40
2017-12-26T09:04:11.431Z,6.50
2017-12-26T09:06:38.935Z,6.50
2017-12-26T09:09:06.477Z,6.60
2017-12-26T09:11:34.007Z,6.60
2017-12-26T09:14:01.494Z,6.70
2017-12-26T09:16:28.985Z,6.70
2017-12-26T09:18:56.500Z,6.70
2017-12-26T09:21:24.764Z,6.80
2017-12-26T09:23:53.037Z,6.90
2017-12-26T09:26:21.362Z,7.00
2017-12-26T09:28:48.835Z,6.90
2017-12-26T09:31:16.323Z,7.00
2017-12-26T09:33:44.615Z,7.10
2017-12-26T09:36:12.876Z,7.10
2017-12-26T09:38:41.136Z,7.10
2017-12-26T09:41:08.641Z,7.10
2017-12-26T09:43:36.141Z,7.10
2017-12-26T09:46:03.639Z,7.10
2017-12-26T09:48:31.148Z,7.20
2017-12-26T09:50:58.642Z,7.20
2017-12-26T09:53:26.905Z,7.20
2017-12-26T09:55:55.680Z,7.30
2017-12-26T09:58:23.263Z,7.20
2017-12-26T10:00:50.774Z,7.30
2017-12-26T10:03:18.282Z,7.40
2017-12-26T10:05:46.543Z,7.40
2017-12-26T10:08:14.819Z,7.50
2017-12-26T10:10:43.104Z,7.60
2017-12-26T10:13:11.420Z,7.60
2017-12-26T10:15:38.944Z,7.60
2017-12-26T10:18:06.608Z,7.60
2017-12-26T10:20:34.120Z,7.70
2017-12-26T10:23:01.625Z,7.70
2017-12-26T10:25:29.136Z,7.80
2017-12-26T10:27:56.641Z,7.80
2017-12-26T10:30:24.166Z,7.80
2017-12-26T10:32:52.436Z,7.80
2017-12-26T10:35:20.023Z,7.80
2017-12-26T10:37:47.541Z,7.90
2017-12-26T10:40:15.051Z,8.00
2017-12-26T10:42:42.560Z,8.00
2017-12-26T10:45:10.072Z,7.90
2017-12-26T10:47:37.571Z,7.80
2017-12-26T10:50:05.078Z,7.70
2017-12-26T10:52:33.368Z,7.40
2017-12-26T10:55:00.864Z,7.40
2017-12-26T10:57:28.361Z,7.30
2017-12-26T10:59:55.895Z,7.30
2017-12-26T11:02:24.168Z,7.30
2017-12-26T11:04:51.684Z,7.30
2017-12-26T11:07:19.231Z,7.30
2017-12-26T11:09:46.741Z,7.40
2017-12-26T11:12:15.012Z,7.60
2017-12-26T11:14:43.291Z,7.60
2017-12-26T11:17:11.567Z,7.60
2017-12-26T11:19:40.304Z,7.60
2017-12-26T11:22:08.592Z,7.60
2017-12-26T11:24:36.082Z,7.50
2017-12-26T11:27:04.585Z,7.50
2017-12-26T11:29:32.127Z,7.50
2017-12-26T11:32:00.388Z,7.50
2017-12-26T11:34:28.652Z,7.50
2017-12-26T11:36:56.181Z,7.50
2017-12-26T11:39:23.795Z,7.60
2017-12-26T11:41:51.331Z,7.70
2017-12-26T11:44:18.829Z,7.70
2017-12-26T11:46:46.357Z,7.80
2017-12-26T11:49:14.676Z,8.00
2017-12-26T11:51:42.576Z,8.00
2017-12-26T11:54:10.188Z,7.90
2017-12-26T11:56:37.932Z,7.90
2017-12-26T11:59:08.484Z,7.80
2017-12-26T12:01:39.321Z,7.80
2017-12-26T12:04:07.386Z,7.70
2017-12-26T12:06:34.973Z,7.60
2017-12-26T12:09:04.136Z,7.50
2017-12-26T12:11:31.849Z,7.40
2017-12-26T12:14:00.990Z,7.30
2017-12-26T12:16:37.286Z,7.20
2017-12-26T12:19:16.514Z,7.10
2017-12-26T12:21:45.544Z,7.10
2017-12-26T12:24:13.869Z,7.00
2017-12-26T12:26:42.053Z,7.00
2017-12-26T12:29:10.343Z,6.90
2017-12-26T12:31:38.758Z,6.90
2017-12-26T12:34:11.086Z,7.00
2017-12-26T12:36:38.636Z,7.00
2017-12-26T12:39:06.594Z,7.00
2017-12-26T12:41:37.125Z,7.10
2017-12-26T12:44:05.135Z,7.10
2017-12-26T12:46:33.641Z,7.20
2017-12-26T12:49:03.738Z,7.40
2017-12-26T12:51:31.345Z,7.30
2017-12-26T12:53:59.793Z,7.50
2017-12-26T12:56:27.840Z,7.60
2017-12-26T12:58:55.386Z,7.50
2017-12-26T13:01:22.887Z,7.50
2017-12-26T13:03:50.398Z,7.40
2017-12-26T13:06:17.906Z,7.30
2017-12-26T13:08:45.454Z,7.10
2017-12-26T13:11:12.948Z,7.00
2017-12-26T13:13:40.907Z,7.00
2017-12-26T13:16:08.455Z,7.00
2017-12-26T13:18:36.736Z,6.90
2017-12-26T13:21:04.249Z,6.90
2017-12-26T13:23:32.552Z,7.00
2017-12-26T13:26:00.184Z,7.00
2017-12-26T13:28:28.540Z,7.20
2017-12-26T13:30:56.037Z,7.10
2017-12-26T13:33:23.788Z,7.20
2017-12-26T13:35:51.629Z,7.20
2017-12-26T13:38:19.237Z,7.20
2017-12-26T13:40:46.779Z,7.20
2017-12-26T13:43:14.275Z,7.20
2017-12-26T13:45:42.166Z,7.10
2017-12-26T13:48:09.695Z,7.00
2017-12-26T13:50:37.511Z,6.90
2017-12-26T13:53:05.304Z,6.80
2017-12-26T13:55:33.821Z,6.70
2017-12-26T13:58:01.310Z,6.60
2017-12-26T14:00:29.579Z,6.70
2017-12-26T14:02:57.850Z,6.80
2017-12-26T14:05:25.331Z,6.80
2017-12-26T14:07:52.861Z,6.80
2017-12-26T14:10:21.180Z,6.90
2017-12-26T14:12:48.817Z,7.00
2017-12-26T14:15:16.316Z,7.20
2017-12-26T14:17:43.815Z,7.30
2017-12-26T14:20:11.310Z,7.30
2017-12-26T14:22:38.941Z,7.40
2017-12-26T14:25:07.281Z,7.50
2017-12-26T14:27:34.767Z,7.50
2017-12-26T14:30:02.273Z,7.50
2017-12-26T14:32:30.026Z,7.50
2017-12-26T14:34:58.426Z,7.30
2017-12-26T14:37:26.787Z,7.20
2017-12-26T14:39:54.275Z,7.20
2017-12-26T14:42:21.771Z,7.10
2017-12-26T14:44:50.060Z,6.80
2017-12-26T14:47:18.329Z,6.80
2017-12-26T14:49:45.817Z,6.70
2017-12-26T14:52:13.344Z,6.60
2017-12-26T14:54:40.824Z,6.60
2017-12-26T14:57:08.340Z,6.50
2017-12-26T14:59:35.856Z,6.50
2017-12-26T15:02:03.352Z,6.40
2017-12-26T15:04:30.869Z,6.40
2017-12-26T15:06:58.370Z,6.30
2017-12-26T15:09:25.892Z,6.20
2017-12-26T15:11:53.387Z,6.20
2017-12-26T15:14:20.893Z,6.20
2017-12-26T15:16:48.379Z,6.10
2017-12-26T15:19:15.888Z,6.00
2017-12-26T15:21:44.145Z,5.90
2017-12-26T15:24:11.628Z,5.90
2017-12-26T15:26:39.131Z,5.80
2017-12-26T15:29:06.619Z,5.70
2017-12-26T15:31:34.902Z,5.60
2017-12-26T15:34:03.151Z,5.60
2017-12-26T15:36:31.431Z,5.50
2017-12-26T15:38:58.944Z,5.50
2017-12-26T15:41:26.436Z,5.50
2017-12-26T15:43:53.919Z,5.50
2017-12-26T15:46:22.285Z,5.50
2017-12-26T15:48:50.578Z,5.40
2017-12-26T15:51:18.116Z,5.40
2017-12-26T15:53:46.408Z,5.20
2017-12-26T15:56:14.960Z,5.10
2017-12-26T15:58:42.695Z,5.10
2017-12-26T16:01:10.721Z,5.10
2017-12-26T16:03:38.491Z,5.00
2017-12-26T16:06:06.380Z,4.90
2017-12-26T16:08:34.090Z,4.90
2017-12-26T16:11:01.571Z,4.80
2017-12-26T16:13:29.095Z,4.70
2017-12-26T16:15:56.670Z,4.70
2017-12-26T16:18:24.159Z,4.60
2017-12-26T16:20:51.993Z,4.60
2017-12-26T16:23:20.258Z,4.50
2017-12-26T16:25:47.748Z,4.50
2017-12-26T16:28:15.263Z,4.50
2017-12-26T16:30:42.789Z,4.50
2017-12-26T16:35:42.538Z,4.40
2017-12-26T16:38:10.035Z,4.30
2017-12-26T16:40:37.848Z,4.30
2017-12-26T16:43:06.117Z,4.30
2017-12-26T16:45:35.277Z,4.30
2017-12-26T16:48:02.787Z,4.30
2017-12-26T16:50:30.289Z,4.30
2017-12-26T16:53:06.157Z,4.30
2017-12-26T16:55:33.751Z,4.30
2017-12-26T16:58:01.723Z,4.30
2017-12-26T17:00:29.409Z,4.40
2017-12-26T17:02:57.008Z,4.30
2017-12-26T17:05:24.673Z,4.30
2017-12-26T17:07:52.548Z,4.30
2017-12-26T17:10:20.291Z,4.30
2017-12-26T17:12:47.780Z,4.30
2017-12-26T17:15:15.708Z,4.20
2017-12-26T17:17:44.273Z,4.20
2017-12-26T17:20:12.364Z,4.20
2017-12-26T17:22:40.151Z,4.20
2017-12-26T17:25:08.276Z,4.10
2017-12-26T17:27:35.798Z,4.10
2017-12-26T17:30:03.376Z,4.10
2017-12-26T17:32:31.108Z,4.10
2017-12-26T17:34:58.611Z,4.10
2017-12-26T17:37:26.115Z,4.10
2017-12-26T17:39:53.971Z,4.10
2017-12-26T17:42:21.539Z,4.00
2017-12-26T17:44:49.426Z,4.00
2017-12-26T17:47:16.922Z,4.00
2017-12-26T17:49:44.454Z,4.00
2017-12-26T17:52:12.013Z,4.00
2017-12-26T17:54:40.361Z,4.00
2017-12-26T17:57:07.986Z,3.90
2017-12-26T17:59:35.547Z,3.90
2017-12-26T18:02:03.071Z,3.90
2017-12-26T18:04:31.323Z,3.90
2017-12-26T18:06:58.812Z,3.90
2017-12-26T18:09:26.322Z,3.90
2017-12-26T18:11:53.856Z,3.80
2017-12-26T18:14:21.348Z,3.80
2017-12-26T18:16:48.871Z,3.80
2017-12-26T18:19:16.368Z,3.80
2017-12-26T18:21:43.992Z,3.80
2017-12-26T18:24:11.498Z,3.70
2017-12-26T18:26:39.799Z,3.70
2017-12-26T18:29:07.338Z,3.70
2017-12-26T18:31:36.360Z,3.70
2017-12-26T18:34:03.890Z,3.70
2017-12-26T18:36:31.443Z,3.70
2017-12-26T18:38:59.780Z,3.70
2017-12-26T18:41:27.266Z,3.70
2017-12-26T18:43:55.544Z,3.70
2017-12-26T18:46:23.856Z,3.70
2017-12-26T18:48:51.396Z,3.70
2017-12-26T18:51:18.931Z,3.70
2017-12-26T18:53:47.245Z,3.70
2017-12-26T18:56:15.140Z,3.70
2017-12-26T18:58:42.947Z,3.70
2017-12-26T19:01:10.530Z,3.70
2017-12-26T19:03:38.084Z,3.70
2017-12-26T19:06:05.570Z,3.70
2017-12-26T19:08:33.143Z,3.70
2017-12-26T19:11:00.639Z,3.60
2017-12-26T19:13:28.186Z,3.60
2017-12-26T19:15:56.516Z,3.50
2017-12-26T19:18:24.063Z,3.50
2017-12-26T19:20:51.825Z,3.40
2017-12-26T19:23:19.498Z,3.30
2017-12-26T19:25:47.063Z,3.20
2017-12-26T19:28:14.593Z,3.20
2017-12-26T19:30:42.218Z,3.10
2017-12-26T19:33:09.968Z,3.00
2017-12-26T19:35:39.009Z,2.90
2017-12-26T19:38:07.471Z,2.90
2017-12-26T19:40:35.178Z,2.80
2017-12-26T19:43:02.766Z,2.80
2017-12-26T19:45:31.094Z,2.60
2017-12-26T19:47:58.649Z,2.60
2017-12-26T19:50:26.209Z,2.60
2017-12-26T19:52:53.779Z,2.50
2017-12-26T19:55:21.327Z,2.50
2017-12-26T19:57:48.813Z,2.40
2017-12-26T20:00:16.322Z,2.40
2017-12-26T20:02:43.854Z,2.30
2017-12-26T20:05:12.171Z,2.30
2017-12-26T20:07:39.734Z,2.30
2017-12-26T20:10:07.318Z,2.30
2017-12-26T20:12:34.890Z,2.30
2017-12-26T20:15:02.421Z,2.20
2017-12-26T20:17:29.975Z,2.20
2017-12-26T20:19:57.595Z,2.20
2017-12-26T20:22:25.140Z,2.20
2017-12-26T20:24:53.416Z,2.20
2017-12-26T20:27:21.682Z,2.20
2017-12-26T20:29:55.761Z,2.10
2017-12-26T20:32:23.281Z,2.10
2017-12-26T20:34:51.013Z,2.10
2017-12-26T20:37:19.473Z,2.10
2017-12-26T20:39:47.013Z,2.10
2017-12-26T20:42:14.848Z,2.10
2017-12-26T20:44:42.414Z,2.10
2017-12-26T20:47:09.953Z,2.10
2017-12-26T20:49:37.465Z,2.10
2017-12-26T20:52:05.034Z,2.10
2017-12-26T20:54:33.336Z,2.10
2017-12-26T20:57:00.878Z,2.10
2017-12-26T20:59:29.197Z,2.20
2017-12-26T21:01:56.734Z,2.20
2017-12-26T21:04:24.317Z,2.20
2017-12-26T21:06:51.895Z,2.20
2017-12-26T21:09:19.442Z,2.20
2017-12-26T21:11:46.979Z,2.20
2017-12-26T21:14:14.626Z,2.20
2017-12-26T21:16:42.156Z,2.20
2017-12-26T21:19:10.454Z,2.20
2017-12-26T21:21:38.011Z,2.10
2017-12-26T21:24:05.550Z,2.20
2017-12-26T21:26:33.854Z,2.40
2017-12-26T21:29:01.422Z,2.40
2017-12-26T21:31:28.958Z,2.50
2017-12-26T21:33:56.501Z,2.40
2017-12-26T21:36:24.826Z,2.40
2017-12-26T21:38:52.377Z,2.40
2017-12-26T21:41:19.936Z,2.40
2017-12-26T21:43:47.469Z,2.40
2017-12-26T21:46:15.058Z,2.30
2017-12-26T21:48:42.605Z,2.30
2017-12-26T21:51:10.150Z,2.20
2017-12-26T21:53:37.732Z,2.20
2017-12-26T21:56:05.276Z,2.20
2017-12-26T21:58:32.838Z,2.30
2017-12-26T22:01:00.420Z,2.30
2017-12-26T22:03:28.777Z,2.50
2017-12-26T22:05:57.070Z,2.60
2017-12-26T22:08:24.619Z,2.60
2017-12-26T22:10:52.159Z,2.70
2017-12-26T22:13:20.477Z,2.90
2017-12-26T22:15:48.066Z,2.80
2017-12-26T22:18:15.652Z,3.00
2017-12-26T22:20:43.195Z,3.00
2017-12-26T22:23:10.740Z,3.00
2017-12-26T22:25:38.294Z,3.10
2017-12-26T22:28:06.650Z,3.10
2017-12-26T22:30:34.230Z,3.00
2017-12-26T22:33:01.797Z,3.00
2017-12-26T22:35:29.401Z,3.10
2017-12-26T22:37:56.951Z,3.10
2017-12-26T22:40:24.529Z,3.10
2017-12-26T22:42:52.098Z,3.10
2017-12-26T22:45:19.641Z,3.10
2017-12-26T22:47:47.189Z,3.10
2017-12-26T22:50:14.751Z,3.20
2017-12-26T22:52:42.298Z,3.10
2017-12-26T22:55:09.837Z,3.20
2017-12-26T22:57:37.401Z,3.20
2017-12-26T23:00:04.961Z,3.30
2017-12-26T23:02:32.515Z,3.30
2017-12-26T23:05:00.102Z,3.30
2017-12-26T23:07:27.654Z,3.40
2017-12-26T23:09:55.219Z,3.40
2017-12-26T23:12:22.808Z,3.40
2017-12-26T23:14:56.875Z,3.40
2017-12-26T23:17:30.261Z,3.40
2017-12-26T23:20:03.500Z,3.40
2017-12-26T23:22:31.831Z,3.50
2017-12-26T23:25:05.081Z,3.50
2017-12-26T23:27:39.201Z,3.50
2017-12-26T23:30:12.325Z,3.50
2017-12-26T23:32:45.528Z,3.50
2017-12-26T23:35:18.793Z,3.50
2017-12-26T23:37:51.956Z,3.50
2017-12-26T23:40:25.196Z,3.50
2017-12-26T23:42:59.330Z,3.60
2017-12-26T23:45:32.601Z,3.50
2017-12-26T23:48:05.757Z,3.60
2017-12-26T23:50:38.987Z,3.60
2017-12-26T23:56:15.570Z,3.60
2017-12-26T23:58:49.449Z,3.60
